virtualACA

Welcome To Calgary International Airport CYYC

Hub Roster

Pilot Domicile Rank
Ethan Title - ACA1641CanadaChief Pilot
Friedrich Haselgruber - ACA1760GermanyChief Pilot
Graham Dawson - ACA2317CanadaChief Pilot
Roger Godden - ACA2339CanadaChief Pilot
John Croxford - ACA2492United KingdomChief Pilot
Hamir Hamir - ACA2906CanadaFirst Officer
Jake Moerland - ACA3058CanadaFirst Officer

Current Vatsim Weather


CYYC 251900Z 27013G25KT 40SM SCT170 BKN240 02/M14 A2930 RMK AC3CI3 SLP969
Calgary International Airport